Silver Orla — V7FI9 — position and weather

sailwx.info

Track history (hours):
 
Tides and Currents Weather Stations Pressure Air Temp Water Temp Dewpoint Dewpoint Depression Visibility Wind Speed Wind Dir Waves Ship Positions

Silver Orla

Last reported at 2018-Feb-14 18:15 UTC. Time now 2018-Feb-23 08:46 UTC.
Position N 09°11' W 079°52'.
Warning: this ship's position is 8 days out of date.

Length 183 m; draft 11.6 m.

Type: Tanker. MMSI: 538005601.

Date/timePositionNaut miles runAvg speedWind from/ knotsBaromVisibWave heightAir tempDewpointWater temp
2018-Feb-14 18:15N 09°11' W 079°52'1 6.1
2018-Feb-14 18:00N 09°11' W 079°53'3 5.6
2018-Feb-14 17:30N 09°13' W 079°56'1 1.4
2018-Feb-14 16:58N 09°14' W 079°56'0 0.0
2018-Feb-14 16:28N 09°14' W 079°56'0 0.0
2018-Feb-14 15:58N 09°14' W 079°56'0 0.0
2018-Feb-14 15:28N 09°14' W 079°56'0 0.0
2018-Feb-14 14:58N 09°14' W 079°56'0 0.0
2018-Feb-14 14:28N 09°14' W 079°56'0 0.1
2018-Feb-14 13:55N 09°14' W 079°56'0 0.0
2018-Feb-14 13:28N 09°14' W 079°56'0 0.0
2018-Feb-14 12:58N 09°14' W 079°56'0 0.0
2018-Feb-14 12:28N 09°14' W 079°56'0 0.0
2018-Feb-14 11:55N 09°14' W 079°56'0 0.0
2018-Feb-14 11:07N 09°14' W 079°56'0 0.0
2018-Feb-14 10:52N 09°14' W 079°56'0 0.2
2018-Feb-14 10:28N 09°14' W 079°56'1 1.9
2018-Feb-14 10:00N 09°15' W 079°55'2 3.5
2018-Feb-14 09:31N 09°16' W 079°55'0 0.4
2018-Feb-14 08:30N 09°17' W 079°55'0 0.8
2018-Feb-14 07:59N 09°17' W 079°55'1 2.6
2018-Feb-14 07:28N 09°18' W 079°55'2 5.2
2018-Feb-14 07:01N 09°21' W 079°55'2 4.8
2018-Feb-14 06:31N 09°23' W 079°55'3 5.2
2018-Feb-14 05:59N 09°26' W 079°55'1 2.2
2018-Feb-14 05:30N 09°26' W 079°56'1 1.4
2018-Feb-14 05:01N 09°26' W 079°57'0 0.2
2018-Feb-14 04:29N 09°25' W 079°57'0 0.0
2018-Feb-14 03:59N 09°25' W 079°57'0 0.0
2018-Feb-14 03:26N 09°25' W 079°57'0 0.0
2018-Feb-14 02:59N 09°25' W 079°57'0 0.0
2018-Feb-14 02:29N 09°25' W 079°57'0 0.0
2018-Feb-14 01:59N 09°25' W 079°57'0 0.0
2018-Feb-14 01:29N 09°25' W 079°57'0 0.0
2018-Feb-14 00:59N 09°25' W 079°57'0 0.0
2018-Feb-14 00:29N 09°25' W 079°57'0 0.0
2018-Feb-13 23:59N 09°25' W 079°57'0 0.0
2018-Feb-13 23:29N 09°25' W 079°57'0 0.0
2018-Feb-13 22:59N 09°25' W 079°57'0 0.0
2018-Feb-13 22:29N 09°25' W 079°57'0 0.0
2018-Feb-13 21:59N 09°25' W 079°57'0 0.0
2018-Feb-13 21:29N 09°25' W 079°57'0 0.0
2018-Feb-13 20:59N 09°25' W 079°57'0 0.1
2018-Feb-13 20:29N 09°26' W 079°57'0 1.0
2018-Feb-13 20:00N 09°25' W 079°57'1 2.3
2018-Feb-13 19:30N 09°26' W 079°58'4 8.6
2018-Feb-13 19:00N 09°29' W 079°56'2 4.7
2018-Feb-13 18:30N 09°30' W 079°54'5 9.5
2018-Feb-13 18:00N 09°35' W 079°52'611.4
2018-Feb-13 17:30N 09°41' W 079°52'611.0
2018-Feb-13 16:59N 09°46' W 079°51'  
Track history (hours):
 
Tides and Currents Weather Stations Pressure Air Temp Water Temp Dewpoint Dewpoint Depression Visibility Wind Speed Wind Dir Waves Ship Positions

Silver Orla

Last reported at 2018-Feb-14 18:15 UTC. Time now 2018-Feb-23 08:46 UTC.
Position N 09°11' W 079°52'.
Warning: this ship's position is 8 days out of date.

Length 183 m; draft 11.6 m.

Type: Tanker. MMSI: 538005601.

Date/timePositionNaut miles runAvg speedWind from/ knotsBaromVisibWave heightAir tempDewpointWater temp
2018-Feb-14 18:15N 09°11' W 079°52'1 6.1
2018-Feb-14 18:00N 09°11' W 079°53'3 5.6
2018-Feb-14 17:30N 09°13' W 079°56'1 1.4
2018-Feb-14 16:58N 09°14' W 079°56'0 0.0
2018-Feb-14 16:28N 09°14' W 079°56'0 0.0
2018-Feb-14 15:58N 09°14' W 079°56'0 0.0
2018-Feb-14 15:28N 09°14' W 079°56'0 0.0
2018-Feb-14 14:58N 09°14' W 079°56'0 0.0
2018-Feb-14 14:28N 09°14' W 079°56'0 0.1
2018-Feb-14 13:55N 09°14' W 079°56'0 0.0
2018-Feb-14 13:28N 09°14' W 079°56'0 0.0
2018-Feb-14 12:58N 09°14' W 079°56'0 0.0
2018-Feb-14 12:28N 09°14' W 079°56'0 0.0
2018-Feb-14 11:55N 09°14' W 079°56'0 0.0
2018-Feb-14 11:07N 09°14' W 079°56'0 0.0
2018-Feb-14 10:52N 09°14' W 079°56'0 0.2
2018-Feb-14 10:28N 09°14' W 079°56'1 1.9
2018-Feb-14 10:00N 09°15' W 079°55'2 3.5
2018-Feb-14 09:31N 09°16' W 079°55'0 0.4
2018-Feb-14 08:30N 09°17' W 079°55'0 0.8
2018-Feb-14 07:59N 09°17' W 079°55'1 2.6
2018-Feb-14 07:28N 09°18' W 079°55'2 5.2
2018-Feb-14 07:01N 09°21' W 079°55'2 4.8
2018-Feb-14 06:31N 09°23' W 079°55'3 5.2
2018-Feb-14 05:59N 09°26' W 079°55'1 2.2
2018-Feb-14 05:30N 09°26' W 079°56'1 1.4
2018-Feb-14 05:01N 09°26' W 079°57'0 0.2
2018-Feb-14 04:29N 09°25' W 079°57'0 0.0
2018-Feb-14 03:59N 09°25' W 079°57'0 0.0
2018-Feb-14 03:26N 09°25' W 079°57'0 0.0
2018-Feb-14 02:59N 09°25' W 079°57'0 0.0
2018-Feb-14 02:29N 09°25' W 079°57'0 0.0
2018-Feb-14 01:59N 09°25' W 079°57'0 0.0
2018-Feb-14 01:29N 09°25' W 079°57'0 0.0
2018-Feb-14 00:59N 09°25' W 079°57'0 0.0
2018-Feb-14 00:29N 09°25' W 079°57'0 0.0
2018-Feb-13 23:59N 09°25' W 079°57'0 0.0
2018-Feb-13 23:29N 09°25' W 079°57'0 0.0
2018-Feb-13 22:59N 09°25' W 079°57'0 0.0
2018-Feb-13 22:29N 09°25' W 079°57'0 0.0
2018-Feb-13 21:59N 09°25' W 079°57'0 0.0
2018-Feb-13 21:29N 09°25' W 079°57'0 0.0
2018-Feb-13 20:59N 09°25' W 079°57'0 0.1
2018-Feb-13 20:29N 09°26' W 079°57'0 1.0
2018-Feb-13 20:00N 09°25' W 079°57'1 2.3
2018-Feb-13 19:30N 09°26' W 079°58'4 8.6
2018-Feb-13 19:00N 09°29' W 079°56'2 4.7
2018-Feb-13 18:30N 09°30' W 079°54'5 9.5
2018-Feb-13 18:00N 09°35' W 079°52'611.4
2018-Feb-13 17:30N 09°41' W 079°52'611.0
2018-Feb-13 16:59N 09°46' W 079°51'  

Dump ship's entire track history